VIR214 EGLL-VTSP
Flight info
| Callsign | VIR214 |
|---|---|
| Flight time | N/A |
| Altitude | 35000 |
| Route | DET1J DET L6 DVR L9 KONAN UL607 KOK DCT MATUG DCT AMASI DCT BOMBI DCT TENLO DCT DEXIT DCT MAREG DCT ALAMU DCT BUDOP DCT UDROS UM859 KARDE UN644 FALAZ UN644 ROLIN N644 LAGAS M747 SULEL N449 DUKAN B449 RANAH L750 MERUN L333 KKJ W49 BBS L759 SATVA SATVA1C |
| Aircraft | A339/H-VGDW/C |
Departure
| Time | 2026-05-05 09:07 |
|---|---|
| Airport | London Heathrow Airport (EGLL) |
Arrival
| Time | N/A |
|---|---|
| Airport | Phuket International Airport (VTSP) |
| Time | Latitude | Longitude | Altitude | Speed | Heading |
|---|---|---|---|---|---|
| 2026-05-05 08:44 | 51.47267 | -0.46305 | 89 ft | 0 kts | 56° |
| 2026-05-05 08:56 | 51.47260 | -0.46322 | 89 ft | 2 kts | 56° |
| 2026-05-05 08:56 | 51.47252 | -0.46342 | 89 ft | 2 kts | 56° |
| 2026-05-05 08:57 | 51.47246 | -0.46355 | 88 ft | 1 kts | 56° |
| 2026-05-05 08:57 | 51.47237 | -0.46373 | 88 ft | 2 kts | 34° |
| 2026-05-05 08:57 | 51.47223 | -0.46383 | 88 ft | 2 kts | 12° |
| 2026-05-05 08:57 | 51.47208 | -0.46385 | 88 ft | 2 kts | 350° |
| 2026-05-05 08:58 | 51.47195 | -0.46377 | 88 ft | 1 kts | 328° |
| 2026-05-05 08:58 | 51.47190 | -0.46372 | 88 ft | 1 kts | 326° |
| 2026-05-05 08:58 | 51.47189 | -0.46372 | 88 ft | 0 kts | 326° |
| 2026-05-05 09:01 | 51.47192 | -0.46375 | 88 ft | 1 kts | 326° |
| 2026-05-05 09:01 | 51.47215 | -0.46402 | 87 ft | 6 kts | 319° |
| 2026-05-05 09:01 | 51.47237 | -0.46491 | 86 ft | 11 kts | 277° |
| 2026-05-05 09:01 | 51.47239 | -0.46632 | 86 ft | 13 kts | 271° |
| 2026-05-05 09:02 | 51.47239 | -0.46785 | 86 ft | 12 kts | 264° |
| 2026-05-05 09:02 | 51.47179 | -0.46864 | 86 ft | 13 kts | 186° |
| 2026-05-05 09:02 | 51.47076 | -0.46866 | 86 ft | 16 kts | 180° |
| 2026-05-05 09:02 | 51.46956 | -0.46866 | 86 ft | 17 kts | 180° |
| 2026-05-05 09:03 | 51.46836 | -0.46864 | 86 ft | 17 kts | 180° |
| 2026-05-05 09:03 | 51.46720 | -0.46863 | 86 ft | 14 kts | 180° |
| 2026-05-05 09:03 | 51.46661 | -0.46909 | 85 ft | 9 kts | 253° |
| 2026-05-05 09:03 | 51.46656 | -0.47033 | 86 ft | 12 kts | 270° |
| 2026-05-05 09:04 | 51.46656 | -0.47183 | 86 ft | 14 kts | 270° |
| 2026-05-05 09:04 | 51.46655 | -0.47355 | 86 ft | 16 kts | 270° |
| 2026-05-05 09:04 | 51.46655 | -0.47529 | 89 ft | 15 kts | 270° |
| 2026-05-05 09:04 | 51.46654 | -0.47722 | 89 ft | 18 kts | 271° |
| 2026-05-05 09:05 | 51.46653 | -0.47944 | 89 ft | 21 kts | 269° |
| 2026-05-05 09:05 | 51.46653 | -0.48197 | 88 ft | 23 kts | 271° |
| 2026-05-05 09:05 | 51.46653 | -0.48468 | 86 ft | 24 kts | 270° |
| 2026-05-05 09:05 | 51.46650 | -0.48700 | 85 ft | 12 kts | 254° |
| 2026-05-05 09:06 | 51.46578 | -0.48777 | 85 ft | 13 kts | 197° |
| 2026-05-05 09:06 | 51.46493 | -0.48748 | 85 ft | 11 kts | 131° |
| 2026-05-05 09:06 | 51.46478 | -0.48619 | 85 ft | 12 kts | 90° |
| 2026-05-05 09:06 | 51.46479 | -0.48346 | 85 ft | 50 kts | 90° |
| 2026-05-05 09:07 | 51.46481 | -0.47446 | 88 ft | 109 kts | 90° |
| 2026-05-05 09:07 | 51.46487 | -0.45945 | 92 ft | 158 kts | 90° |
| 2026-05-05 09:07 | 51.46493 | -0.43995 | 275 ft | 184 kts | 89° |
| 2026-05-05 09:07 | 51.46493 | -0.41984 | 938 ft | 178 kts | 92° |
| 2026-05-05 09:08 | 51.46107 | -0.40118 | 1499 ft | 184 kts | 120° |
| 2026-05-05 09:08 | 51.45401 | -0.38421 | 1996 ft | 187 kts | 120° |
| 2026-05-05 09:08 | 51.44639 | -0.36655 | 2307 ft | 198 kts | 128° |
| 2026-05-05 09:08 | 51.43618 | -0.35074 | 2568 ft | 210 kts | 129° |
| 2026-05-05 09:09 | 51.42923 | -0.33008 | 2792 ft | 216 kts | 96° |
| 2026-05-05 09:09 | 51.42807 | -0.30542 | 2979 ft | 232 kts | 90° |
| 2026-05-05 09:09 | 51.42607 | -0.27898 | 3234 ft | 249 kts | 96° |
| 2026-05-05 09:09 | 51.42309 | -0.25097 | 3678 ft | 258 kts | 98° |
| 2026-05-05 09:10 | 51.41957 | -0.22292 | 4241 ft | 261 kts | 100° |
| 2026-05-05 09:10 | 51.41565 | -0.19453 | 4829 ft | 264 kts | 100° |
| 2026-05-05 09:10 | 51.41168 | -0.16574 | 5414 ft | 266 kts | 100° |
| 2026-05-05 09:10 | 51.40769 | -0.13680 | 5991 ft | 268 kts | 101° |
| 2026-05-05 09:11 | 51.40369 | -0.10784 | 6555 ft | 271 kts | 101° |
| 2026-05-05 09:11 | 51.39961 | -0.07837 | 7113 ft | 273 kts | 101° |
| 2026-05-05 09:11 | 51.39551 | -0.04885 | 7646 ft | 276 kts | 101° |
| 2026-05-05 09:11 | 51.39131 | -0.01869 | 8180 ft | 279 kts | 101° |
| 2026-05-05 09:12 | 51.38713 | 0.01133 | 8712 ft | 281 kts | 101° |